Time;durP1;ratioP1;P1;durP2;ratioP2;P2;SDS_P1;SDS_P2;PMS_P1;PMS_P2;Temp;Humidity;BMP_temperature;BMP_pressure;BME280_temperature;BME280_humidity;BME280_pressure;Samples;Min_cycle;Max_cycle;Signal;HPM_P1;HPM_P2
2022/08/21 00:02:03;;;;;;;;;;;;;;;15.73;68.12;96652.91;5076573;28;20054;-73
2022/08/21 00:04:29;;;;;;;;;;;;;;;15.72;68.11;96653.94;5076614;28;19964;-73
2022/08/21 00:06:56;;;;;;;;;;;;;;;15.70;67.96;96651.50;5075592;28;19971;-73
2022/08/21 00:09:21;;;;;;;;;;;;;;;15.68;68.42;96653.59;5076487;28;19960;-73
2022/08/21 00:11:47;;;;;;;;;;;;;;;15.66;68.40;96646.94;5076274;28;20001;-73
2022/08/21 00:14:13;;;;;;;;;;;;;;;15.61;68.13;96645.84;5076554;28;19984;-73
2022/08/21 00:16:39;;;;;;;;;;;;;;;15.59;68.10;96637.34;5076101;28;19978;-73
2022/08/21 00:19:06;;;;;;;;;;;;;;;15.56;68.47;96640.50;5076626;28;19965;-73
2022/08/21 00:21:32;;;;;;;;;;;;;;;15.55;68.89;96646.81;5076603;28;19962;-73
2022/08/21 00:23:58;;;;;;;;;;;;;;;15.51;68.59;96634.34;5075926;28;19959;-73
2022/08/21 00:26:24;;;;;;;;;;;;;;;15.47;68.93;96634.00;5076161;28;20337;-73
2022/08/21 00:28:50;;;;;;;;;;;;;;;15.43;68.96;96625.78;5076488;28;20432;-73
2022/08/21 00:31:17;;;;;;;;;;;;;;;15.39;69.10;96629.16;5075907;28;19956;-73
2022/08/21 00:33:43;;;;;;;;;;;;;;;15.34;69.31;96629.88;5076147;28;19954;-73
2022/08/21 00:36:10;;;;;;;;;;;;;;;15.30;69.43;96620.84;5076447;28;20022;-73
2022/08/21 00:38:36;;;;;;;;;;;;;;;15.27;69.35;96623.19;5075688;28;19977;-77
2022/08/21 00:41:03;;;;;;;;;;;;;;;15.23;69.73;96618.38;5075750;28;19966;-74
2022/08/21 00:43:31;;;;;;;;;;;;;;;15.21;69.90;96623.09;5076016;28;19965;-73
2022/08/21 00:45:58;;;;;;;;;;;;;;;15.19;69.78;96619.91;5075658;28;20034;-73
2022/08/21 00:48:24;;;;;;;;;;;;;;;15.16;69.84;96622.22;5076004;28;19957;-73
2022/08/21 00:50:54;;;;;;;;;;;;;;;15.11;69.82;96622.16;5075591;28;20317;-74
2022/08/21 00:53:20;;;;;;;;;;;;;;;15.05;70.34;96623.13;5075912;28;20414;-74
2022/08/21 00:55:46;;;;;;;;;;;;;;;15.00;69.57;96616.72;5075473;28;20020;-73
2022/08/21 00:58:13;;;;;;;;;;;;;;;14.95;70.15;96614.03;5075817;28;19986;-73
2022/08/21 01:00:41;;;;;;;;;;;;;;;14.92;69.91;96624.25;5075402;28;19952;-73
2022/08/21 01:03:09;;;;;;;;;;;;;;;14.91;69.96;96622.63;5075578;28;20296;-73
2022/08/21 01:05:35;;;;;;;;;;;;;;;14.90;70.75;96629.78;5075635;28;19959;-74
2022/08/21 01:08:01;;;;;;;;;;;;;;;14.90;70.68;96627.13;5075211;28;19956;-73
2022/08/21 01:10:27;;;;;;;;;;;;;;;14.89;70.88;96614.97;5057813;28;19964;-73
2022/08/21 01:12:54;;;;;;;;;;;;;;;14.90;70.75;96618.41;5073694;28;19958;-72
2022/08/21 01:15:22;;;;;;;;;;;;;;;14.91;71.66;96617.34;5075358;28;19987;-73
2022/08/21 01:17:49;;;;;;;;;;;;;;;14.91;70.94;96612.06;5075121;28;19974;-73
2022/08/21 01:20:16;;;;;;;;;;;;;;;14.90;71.33;96610.50;5075108;28;19958;-72
2022/08/21 01:22:42;;;;;;;;;;;;;;;14.89;71.24;96604.41;5075413;28;20413;-73
2022/08/21 01:25:09;;;;;;;;;;;;;;;14.87;71.10;96603.06;5075613;28;20311;-72
2022/08/21 01:27:35;;;;;;;;;;;;;;;14.85;71.38;96613.06;5074950;28;19965;-72
2022/08/21 01:30:09;;;;;;;;;;;;;;;14.81;71.32;96602.97;5074791;28;19966;-74
2022/08/21 01:32:35;;;;;;;;;;;;;;;14.76;70.90;96602.09;5075167;28;20331;-74
2022/08/21 01:35:01;;;;;;;;;;;;;;;14.70;71.28;96595.94;5074976;28;19958;-74
2022/08/21 01:37:27;;;;;;;;;;;;;;;14.66;71.00;96594.81;5074637;28;19980;-74
2022/08/21 01:39:53;;;;;;;;;;;;;;;14.61;71.28;96592.09;5074695;28;19967;-74
2022/08/21 01:42:19;;;;;;;;;;;;;;;14.57;71.06;96583.06;5074834;28;20320;-74
2022/08/21 01:44:45;;;;;;;;;;;;;;;14.55;71.31;96596.50;5074766;28;19964;-74
2022/08/21 01:47:12;;;;;;;;;;;;;;;14.53;71.61;96593.28;5075202;28;20043;-74
2022/08/21 01:49:38;;;;;;;;;;;;;;;14.51;71.58;96592.72;5074349;28;20402;-71
2022/08/21 01:52:04;;;;;;;;;;;;;;;14.49;71.27;96591.31;5074492;28;20424;-74
2022/08/21 01:54:30;;;;;;;;;;;;;;;14.47;71.90;96588.94;5074290;28;19985;-74
2022/08/21 01:56:57;;;;;;;;;;;;;;;14.43;72.09;96587.81;5074484;28;20346;-76
2022/08/21 01:59:24;;;;;;;;;;;;;;;14.38;72.36;96591.19;5074149;28;20412;-72
2022/08/21 02:01:50;;;;;;;;;;;;;;;14.33;72.02;96585.81;5074421;28;20438;-72
2022/08/21 02:04:16;;;;;;;;;;;;;;;14.31;71.67;96587.88;5074641;28;19954;-72
2022/08/21 02:06:42;;;;;;;;;;;;;;;14.28;72.16;96585.72;5073352;28;19954;-72
2022/08/21 02:09:09;;;;;;;;;;;;;;;14.25;72.46;96582.75;5074633;28;20437;-72
2022/08/21 02:11:36;;;;;;;;;;;;;;;14.19;72.38;96573.94;5074163;28;20326;-72
2022/08/21 02:14:02;;;;;;;;;;;;;;;14.16;72.39;96582.34;5073700;28;19990;-72
2022/08/21 02:16:28;;;;;;;;;;;;;;;14.12;72.39;96578.59;5073964;28;19984;-72
2022/08/21 02:18:54;;;;;;;;;;;;;;;14.10;72.44;96578.03;5073941;28;20041;-72
2022/08/21 02:21:20;;;;;;;;;;;;;;;14.05;72.69;96581.38;5073949;28;19962;-72
2022/08/21 02:23:45;;;;;;;;;;;;;;;14.02;72.34;96572.06;5073823;28;20351;-72
2022/08/21 02:26:12;;;;;;;;;;;;;;;14.02;72.53;96574.72;5064974;28;19965;-72
2022/08/21 02:28:38;;;;;;;;;;;;;;;14.04;72.78;96571.06;5073879;28;19968;-72
2022/08/21 02:31:04;;;;;;;;;;;;;;;14.05;73.06;96564.72;5073694;28;20379;-72
2022/08/21 02:33:30;;;;;;;;;;;;;;;14.05;73.25;96573.47;5074040;28;20331;-72
2022/08/21 02:35:56;;;;;;;;;;;;;;;14.05;73.40;96572.63;5074008;28;20047;-72
2022/08/21 02:38:25;;;;;;;;;;;;;;;14.04;73.51;96573.69;5072390;28;20327;-74
2022/08/21 02:40:51;;;;;;;;;;;;;;;14.00;73.23;96583.91;5073824;28;19966;-77
2022/08/21 02:43:18;;;;;;;;;;;;;;;13.95;72.92;96568.78;5073601;28;20403;-74
2022/08/21 02:45:44;;;;;;;;;;;;;;;13.94;73.47;96577.75;5073506;28;19959;-74
2022/08/21 02:48:12;;;;;;;;;;;;;;;13.90;73.57;96570.53;5072998;28;20352;-73
2022/08/21 02:50:40;;;;;;;;;;;;;;;13.87;73.51;96563.09;5073459;28;19963;-73
2022/08/21 02:53:07;;;;;;;;;;;;;;;13.85;73.65;96565.97;5073881;28;19963;-74
2022/08/21 02:55:34;;;;;;;;;;;;;;;13.84;73.71;96566.19;5073406;28;19960;-74
2022/08/21 02:58:02;;;;;;;;;;;;;;;13.82;73.80;96563.81;5073343;28;19966;-74
2022/08/21 03:00:29;;;;;;;;;;;;;;;13.84;74.46;96569.66;5073916;28;19961;-75
2022/08/21 03:02:56;;;;;;;;;;;;;;;13.81;74.31;96563.00;5073699;28;19964;-72
2022/08/21 03:05:23;;;;;;;;;;;;;;;13.80;73.96;96568.53;5073345;28;20433;-72
2022/08/21 03:07:49;;;;;;;;;;;;;;;13.78;74.08;96565.31;5073496;28;20346;-72
2022/08/21 03:10:15;;;;;;;;;;;;;;;13.75;74.23;96565.78;5073415;28;19955;-72
2022/08/21 03:12:41;;;;;;;;;;;;;;;13.72;74.07;96561.78;5073424;28;19960;-71
2022/08/21 03:15:09;;;;;;;;;;;;;;;13.70;73.84;96560.41;5073013;28;19974;-71
2022/08/21 03:17:35;;;;;;;;;;;;;;;13.68;73.85;96563.28;5073150;28;20422;-71
2022/08/21 03:20:03;;;;;;;;;;;;;;;13.64;73.85;96553.44;5073376;28;19952;-72
2022/08/21 03:22:28;;;;;;;;;;;;;;;13.62;73.63;96553.66;5073561;28;19968;-72
2022/08/21 03:24:54;;;;;;;;;;;;;;;13.62;74.26;96564.22;5073469;28;19948;-72
2022/08/21 03:27:20;;;;;;;;;;;;;;;13.59;74.33;96568.13;5073121;28;20055;-73
2022/08/21 03:29:46;;;;;;;;;;;;;;;13.58;74.21;96561.22;5073515;28;19960;-73
2022/08/21 03:32:12;;;;;;;;;;;;;;;13.55;74.81;96569.63;5073257;28;20488;-73
2022/08/21 03:34:38;;;;;;;;;;;;;;;13.53;74.96;96565.63;5073204;28;19959;-73
2022/08/21 03:37:06;;;;;;;;;;;;;;;13.53;74.98;96569.06;5073263;28;20034;-74
2022/08/21 03:39:31;;;;;;;;;;;;;;;13.52;75.22;96567.47;5073189;28;19953;-73
2022/08/21 03:41:59;;;;;;;;;;;;;;;13.50;74.77;96566.91;5073438;28;20092;-73
2022/08/21 03:44:25;;;;;;;;;;;;;;;13.53;74.98;96568.25;5072662;28;19963;-73
2022/08/21 03:46:51;;;;;;;;;;;;;;;13.51;75.03;96563.22;5069794;28;19961;-73
2022/08/21 03:49:17;;;;;;;;;;;;;;;13.52;76.28;96570.09;5065006;28;19969;-73
2022/08/21 03:51:43;;;;;;;;;;;;;;;13.52;76.24;96569.28;5072977;28;20058;-74
2022/08/21 03:54:09;;;;;;;;;;;;;;;13.51;76.63;96568.47;5059507;28;19955;-74
2022/08/21 03:56:35;;;;;;;;;;;;;;;13.50;77.07;96563.44;5073231;28;20019;-74
2022/08/21 03:59:02;;;;;;;;;;;;;;;13.49;76.93;96573.19;5058677;28;19980;-74
2022/08/21 04:01:28;;;;;;;;;;;;;;;13.50;76.86;96576.63;5076606;28;19964;-73
2022/08/21 04:03:55;;;;;;;;;;;;;;;13.48;76.80;96576.03;5076729;28;19963;-73
2022/08/21 04:06:21;;;;;;;;;;;;;;;13.48;76.50;96576.88;5076773;28;19956;-73
2022/08/21 04:08:46;;;;;;;;;;;;;;;13.47;76.29;96569.97;5076317;28;20331;-73
2022/08/21 04:11:12;;;;;;;;;;;;;;;13.46;76.00;96573.66;5076296;28;19956;-73
2022/08/21 04:13:38;;;;;;;;;;;;;;;13.47;76.01;96579.72;5076471;28;20050;-73
2022/08/21 04:16:04;;;;;;;;;;;;;;;13.44;75.99;96573.09;5076270;28;20411;-73
2022/08/21 04:18:30;;;;;;;;;;;;;;;13.42;76.39;96577.78;5076246;28;19981;-72
2022/08/21 04:20:57;;;;;;;;;;;;;;;13.39;75.67;96580.88;5076593;28;20439;-72
2022/08/21 04:23:23;;;;;;;;;;;;;;;13.39;76.02;96588.78;5076155;28;19966;-73
2022/08/21 04:25:49;;;;;;;;;;;;;;;13.36;75.76;96582.16;5076077;28;19953;-73
2022/08/21 04:28:15;;;;;;;;;;;;;;;13.36;76.24;96592.69;5076335;28;20422;-72
2022/08/21 04:30:41;;;;;;;;;;;;;;;13.37;76.36;96604.81;5075992;28;20002;-73
2022/08/21 04:33:07;;;;;;;;;;;;;;;13.35;76.55;96604.22;5076326;28;19962;-72
2022/08/21 04:35:33;;;;;;;;;;;;;;;13.36;76.25;96605.84;5076251;28;19971;-72
2022/08/21 04:37:59;;;;;;;;;;;;;;;13.36;76.41;96599.78;5075791;28;20001;-72
2022/08/21 04:40:26;;;;;;;;;;;;;;;13.36;76.88;96605.06;5075780;28;19969;-73
2022/08/21 04:42:53;;;;;;;;;;;;;;;13.37;76.73;96615.34;5075935;28;19960;-73
2022/08/21 04:45:26;;;;;;;;;;;;;;;13.37;76.77;96614.56;5075622;28;19967;-73
2022/08/21 04:47:53;;;;;;;;;;;;;;;13.38;77.13;96614.31;5076054;28;20312;-74
2022/08/21 04:50:22;;;;;;;;;;;;;;;13.37;76.64;96610.06;5074762;28;19990;-73
2022/08/21 04:52:48;;;;;;;;;;;;;;;13.40;76.56;96619.38;5075769;28;19962;-73
2022/08/21 04:55:15;;;;;;;;;;;;;;;13.40;76.63;96612.25;5075965;28;19960;-73
2022/08/21 04:57:41;;;;;;;;;;;;;;;13.41;77.01;96615.69;5075311;28;19969;-74
2022/08/21 05:00:10;;;;;;;;;;;;;;;13.43;76.98;96608.34;5075572;28;19963;-73
2022/08/21 05:02:37;;;;;;;;;;;;;;;13.49;77.20;96625.88;5075357;28;20332;-73
2022/08/21 05:05:03;;;;;;;;;;;;;;;13.59;77.03;96626.09;5075690;28;19972;-73
2022/08/21 05:07:31;;;;;;;;;;;;;;;13.73;76.51;96626.66;5075589;28;19967;-73
2022/08/21 05:09:58;;;;;;;;;;;;;;;13.88;76.62;96622.69;5075566;28;19957;-73
2022/08/21 05:12:24;;;;;;;;;;;;;;;14.05;76.16;96628.84;5074297;28;19959;-73
2022/08/21 05:14:50;;;;;;;;;;;;;;;14.26;75.95;96624.75;5074965;28;19988;-73
2022/08/21 05:17:16;;;;;;;;;;;;;;;14.48;75.61;96614.28;5075304;28;19980;-73
2022/08/21 05:19:42;;;;;;;;;;;;;;;14.75;75.13;96622.41;5075031;28;19968;-73
2022/08/21 05:22:09;;;;;;;;;;;;;;;15.06;74.14;96622.88;5075148;28;20039;-73
2022/08/21 05:24:35;;;;;;;;;;;;;;;15.39;73.22;96605.34;5074938;28;19958;-73
2022/08/21 05:27:01;;;;;;;;;;;;;;;15.75;72.01;96608.50;5073050;28;19957;-73
2022/08/21 05:29:27;;;;;;;;;;;;;;;16.06;70.65;96606.97;5074845;28;19974;-73
2022/08/21 05:31:53;;;;;;;;;;;;;;;16.36;69.88;96606.50;5074901;28;19962;-74
2022/08/21 05:34:20;;;;;;;;;;;;;;;16.74;69.19;96599.41;5074820;28;20421;-73
2022/08/21 05:36:46;;;;;;;;;;;;;;;17.13;67.82;96595.72;5068256;28;19976;-73
2022/08/21 05:39:12;;;;;;;;;;;;;;;17.50;66.96;96592.22;5074495;28;19952;-73
2022/08/21 05:41:38;;;;;;;;;;;;;;;17.85;65.65;96581.78;5074742;28;19971;-73
2022/08/21 05:44:04;;;;;;;;;;;;;;;18.20;64.64;96574.16;5074420;28;19965;-73
2022/08/21 05:46:30;;;;;;;;;;;;;;;18.53;63.02;96556.13;5074938;28;19970;-73
2022/08/21 05:48:56;;;;;;;;;;;;;;;18.79;62.40;96552.44;5074956;28;19966;-73
2022/08/21 05:51:21;;;;;;;;;;;;;;;19.07;61.83;96550.25;5106977;28;19960;-74
2022/08/21 05:53:47;;;;;;;;;;;;;;;19.34;61.45;96552.56;5074562;28;20013;-74
2022/08/21 05:56:14;;;;;;;;;;;;;;;19.56;59.46;96540.78;5074317;28;20585;-76
2022/08/21 05:58:39;;;;;;;;;;;;;;;19.72;59.88;96542.34;5074623;28;19975;-73
2022/08/21 06:01:07;;;;;;;;;;;;;;;19.92;58.87;96535.31;5074223;28;20451;-73
2022/08/21 06:03:34;;;;;;;;;;;;;;;20.02;58.98;96548.56;5074313;28;20437;-73
2022/08/21 06:06:01;;;;;;;;;;;;;;;20.16;57.90;96533.56;5070791;28;19957;-72
2022/08/21 06:08:27;;;;;;;;;;;;;;;20.30;57.91;96541.69;5074179;28;19962;-73
2022/08/21 06:10:54;;;;;;;;;;;;;;;20.40;57.10;96527.50;5067469;28;19963;-74
2022/08/21 06:13:20;;;;;;;;;;;;;;;20.30;56.75;96527.59;5074244;28;19969;-74
2022/08/21 06:15:46;;;;;;;;;;;;;;;20.29;56.24;96529.47;5074343;28;19976;-74
2022/08/21 06:18:12;;;;;;;;;;;;;;;20.25;57.65;96549.72;5074375;28;19996;-73
2022/08/21 06:20:39;;;;;;;;;;;;;;;20.31;57.06;96539.84;5073774;28;19952;-73
2022/08/21 06:23:05;;;;;;;;;;;;;;;20.28;56.74;96539.34;5074046;28;19959;-73
2022/08/21 06:25:31;;;;;;;;;;;;;;;20.20;57.00;96531.94;5073783;28;19972;-73
2022/08/21 06:28:04;;;;;;;;;;;;;;;20.25;57.14;96539.88;5072901;28;19965;-73
2022/08/21 06:30:30;;;;;;;;;;;;;;;20.27;56.69;96531.59;5073742;28;20421;-73
2022/08/21 06:32:56;;;;;;;;;;;;;;;20.31;57.03;96540.63;5073863;28;19957;-73
2022/08/21 06:35:21;;;;;;;;;;;;;;;20.23;56.82;96542.00;5073854;28;20004;-73
2022/08/21 06:37:47;;;;;;;;;;;;;;;20.14;56.24;96527.72;5073531;28;19972;-73
2022/08/21 06:40:13;;;;;;;;;;;;;;;20.04;55.64;96527.78;5073032;28;19970;-73
2022/08/21 06:42:39;;;;;;;;;;;;;;;20.07;56.53;96537.84;5073883;28;20010;-73
2022/08/21 06:45:05;;;;;;;;;;;;;;;20.12;56.46;96531.72;5071901;28;20008;-73
2022/08/21 06:47:31;;;;;;;;;;;;;;;20.25;55.51;96523.88;5073901;28;19963;-74
2022/08/21 06:49:57;;;;;;;;;;;;;;;20.33;54.71;96513.72;5072769;28;20373;-74
2022/08/21 06:52:23;;;;;;;;;;;;;;;20.45;55.10;96517.63;5074143;28;20068;-73
2022/08/21 06:54:49;;;;;;;;;;;;;;;20.52;54.01;96509.31;5073981;28;20009;-74
2022/08/21 06:57:15;;;;;;;;;;;;;;;20.54;54.71;96522.34;5073666;28;20333;-75
2022/08/21 06:59:41;;;;;;;;;;;;;;;20.60;54.37;96523.91;5073448;28;19968;-74
2022/08/21 07:02:07;;;;;;;;;;;;;;;20.65;53.99;96522.00;5067016;28;20017;-74
2022/08/21 07:04:33;;;;;;;;;;;;;;;20.76;53.54;96508.56;5073357;28;19969;-73
2022/08/21 07:06:59;;;;;;;;;;;;;;;20.83;53.84;96517.84;5073819;28;20474;-74
2022/08/21 07:09:25;;;;;;;;;;;;;;;20.80;55.16;96528.25;5073489;28;20013;-74
2022/08/21 07:11:53;;;;;;;;;;;;;;;20.91;55.29;96532.41;5073143;28;20040;-74
2022/08/21 07:14:19;;;;;;;;;;;;;;;20.95;54.89;96532.66;5073419;28;19991;-74
2022/08/21 07:16:45;;;;;;;;;;;;;;;20.93;53.91;96524.13;5073240;28;20395;-74
2022/08/21 07:19:10;;;;;;;;;;;;;;;20.83;55.24;96539.16;5073371;28;19964;-74
2022/08/21 07:21:37;;;;;;;;;;;;;;;20.85;55.16;96542.34;5073193;28;20296;-74
2022/08/21 07:24:03;;;;;;;;;;;;;;;20.80;54.39;96529.06;5073489;28;19967;-74
2022/08/21 07:26:28;;;;;;;;;;;;;;;20.85;53.83;96531.69;5073102;28;20350;-74
2022/08/21 07:28:54;;;;;;;;;;;;;;;20.83;54.00;96523.16;5073412;28;19974;-74
2022/08/21 07:31:22;;;;;;;;;;;;;;;21.05;54.83;96536.00;5072968;28;20019;-74
2022/08/21 07:33:47;;;;;;;;;;;;;;;21.19;52.28;96504.13;5073028;28;19964;-74
2022/08/21 07:36:13;;;;;;;;;;;;;;;21.20;53.69;96518.25;5076945;28;20011;-74
2022/08/21 07:38:39;;;;;;;;;;;;;;;21.28;52.72;96510.41;5076553;28;19983;-73
2022/08/21 07:41:12;;;;;;;;;;;;;;;21.38;52.99;96514.06;5077496;28;19957;-74
2022/08/21 07:43:38;;;;;;;;;;;;;;;21.32;53.03;96515.19;5076927;28;19972;-74
2022/08/21 07:46:04;;;;;;;;;;;;;;;21.39;52.92;96511.06;5077453;28;19968;-74
2022/08/21 07:48:30;;;;;;;;;;;;;;;21.40;53.04;96512.69;5074717;28;20472;-74
2022/08/21 07:50:56;;;;;;;;;;;;;;;21.37;51.26;96493.78;5077637;28;20375;-72
2022/08/21 07:53:22;;;;;;;;;;;;;;;21.40;52.07;96509.22;5068083;28;19965;-74
2022/08/21 07:55:47;;;;;;;;;;;;;;;21.45;54.12;96522.53;5075994;28;20049;-74
2022/08/21 07:58:13;;;;;;;;;;;;;;;21.57;52.61;96517.56;5075376;28;19978;-73
2022/08/21 08:00:40;;;;;;;;;;;;;;;21.63;54.42;96535.09;5076788;28;20031;-73
2022/08/21 08:03:05;;;;;;;;;;;;;;;22.00;52.74;96522.06;5076674;28;20317;-73
2022/08/21 08:05:32;;;;;;;;;;;;;;;22.34;52.67;96521.03;5076796;28;19993;-74
2022/08/21 08:07:58;;;;;;;;;;;;;;;22.58;50.56;96499.56;5076545;28;19962;-73
2022/08/21 08:10:24;;;;;;;;;;;;;;;22.76;50.42;96501.34;5076287;28;19969;-73
2022/08/21 08:12:51;;;;;;;;;;;;;;;22.76;49.40;96498.66;5076360;28;20362;-73
2022/08/21 08:15:20;;;;;;;;;;;;;;;22.67;48.86;96508.47;5076051;28;20328;-72
2022/08/21 08:17:46;;;;;;;;;;;;;;;22.71;50.16;96512.16;5075249;28;19974;-73
2022/08/21 08:20:13;;;;;;;;;;;;;;;22.89;49.58;96505.94;5076217;28;19964;-73
2022/08/21 08:22:41;;;;;;;;;;;;;;;23.03;47.73;96497.16;5076083;28;19954;-74
2022/08/21 08:25:08;;;;;;;;;;;;;;;23.05;49.49;96513.69;5064942;28;19965;-74
2022/08/21 08:27:34;;;;;;;;;;;;;;;23.12;48.58;96507.94;5076128;28;19964;-73
2022/08/21 08:30:00;;;;;;;;;;;;;;;23.04;45.86;96499.53;5076134;28;20061;-74
2022/08/21 08:32:26;;;;;;;;;;;;;;;23.14;48.68;96519.16;5075277;28;20427;-74
2022/08/21 08:34:52;;;;;;;;;;;;;;;23.23;47.24;96507.47;5070047;28;19994;-74
2022/08/21 08:37:19;;;;;;;;;;;;;;;23.33;46.19;96503.00;5067300;28;19970;-75
2022/08/21 08:39:45;;;;;;;;;;;;;;;23.37;47.36;96509.34;5068267;28;19974;-76
2022/08/21 08:42:16;;;;;;;;;;;;;;;23.48;47.74;96516.09;5075985;28;19956;-74
2022/08/21 08:44:43;;;;;;;;;;;;;;;23.63;45.98;96504.25;5075930;28;20476;-74
2022/08/21 08:47:10;;;;;;;;;;;;;;;23.79;44.75;96505.56;5075639;28;19972;-74
2022/08/21 08:49:40;;;;;;;;;;;;;;;23.77;45.51;96506.91;5073414;28;20413;-73
2022/08/21 08:52:24;;;;;;;;;;;;;;;23.67;44.88;96508.72;5067339;28;19964;-74
2022/08/21 08:54:59;;;;;;;;;;;;;;;23.57;44.27;96508.13;5073759;28;19963;-74
2022/08/21 08:57:25;;;;;;;;;;;;;;;23.63;47.24;96521.13;5073210;28;19979;-72
2022/08/21 08:59:54;;;;;;;;;;;;;;;23.80;46.40;96517.84;5070451;28;19960;-74
2022/08/21 09:02:23;;;;;;;;;;;;;;;24.03;46.42;96507.94;5075368;28;19956;-73
2022/08/21 09:04:49;;;;;;;;;;;;;;;24.27;45.73;96502.31;5075981;28;19962;-73
2022/08/21 09:07:31;;;;;;;;;;;;;;;24.46;44.53;96498.63;5075557;28;20355;-73
2022/08/21 09:10:12;;;;;;;;;;;;;;;24.55;44.09;96501.38;5074282;28;19987;-73
2022/08/21 09:12:47;;;;;;;;;;;;;;;24.46;43.60;96490.59;5068600;28;19954;-71
2022/08/21 09:15:18;;;;;;;;;;;;;;;24.38;43.76;96500.16;5075725;28;20315;-72
2022/08/21 09:17:55;;;;;;;;;;;;;;;24.47;43.73;96505.59;5075707;28;19978;-72
2022/08/21 09:20:21;;;;;;;;;;;;;;;24.64;43.69;96500.34;5075085;28;19961;-72
2022/08/21 09:22:55;;;;;;;;;;;;;;;24.72;42.99;96490.78;5074264;28;19965;-73
2022/08/21 09:25:22;;;;;;;;;;;;;;;24.74;42.70;96482.41;5071174;28;19977;-74
2022/08/21 09:27:48;;;;;;;;;;;;;;;24.90;42.52;96492.44;5064113;28;20431;-73
2022/08/21 09:30:14;;;;;;;;;;;;;;;25.02;40.72;96469.59;5072467;28;19957;-74
2022/08/21 09:32:41;;;;;;;;;;;;;;;24.95;41.46;96482.66;5066679;28;19961;-72
2022/08/21 09:35:10;;;;;;;;;;;;;;;24.88;41.02;96478.56;5071717;28;20055;-72
2022/08/21 09:37:45;;;;;;;;;;;;;;;24.98;40.99;96490.09;5071260;28;19985;-73
2022/08/21 09:40:30;;;;;;;;;;;;;;;25.12;39.94;96480.06;5066980;28;19956;-81
2022/08/21 09:42:58;;;;;;;;;;;;;;;25.23;40.68;96473.31;5071246;28;19960;-73
2022/08/21 09:45:24;;;;;;;;;;;;;;;25.32;39.03;96476.03;5074154;28;19961;-73
2022/08/21 09:47:50;;;;;;;;;;;;;;;25.35;39.57;96466.56;5074598;28;19957;-73
2022/08/21 09:50:18;;;;;;;;;;;;;;;25.30;38.74;96472.84;5074400;28;20029;-78
2022/08/21 09:52:45;;;;;;;;;;;;;;;25.25;39.85;96476.47;5065791;28;19952;-72
2022/08/21 09:58:04;;;;;;;;;;;;;;;25.20;39.32;96470.44;5073369;28;20337;-72
2022/08/21 10:00:32;;;;;;;;;;;;;;;25.15;39.05;96473.25;5073726;28;19960;-74
2022/08/21 10:03:16;;;;;;;;;;;;;;;25.21;40.97;96480.09;5071447;28;19954;-73
2022/08/21 10:05:50;;;;;;;;;;;;;;;25.40;41.11;96474.47;5068049;28;20409;-73
2022/08/21 10:08:18;;;;;;;;;;;;;;;25.58;39.18;96465.34;5070738;28;20320;-73
2022/08/21 10:10:44;;;;;;;;;;;;;;;25.67;40.57;96455.38;5074701;28;19968;-73
2022/08/21 10:13:20;;;;;;;;;;;;;;;25.72;40.06;96470.56;5074048;28;19961;-73
2022/08/21 10:16:05;;;;;;;;;;;;;;;25.58;37.98;96459.97;5075160;28;19985;-73
2022/08/21 10:18:30;;;;;;;;;;;;;;;25.73;39.21;96454.13;5064914;28;19973;-74
2022/08/21 10:21:02;;;;;;;;;;;;;;;25.89;39.13;96459.03;5074493;28;19956;-73
2022/08/21 10:23:37;;;;;;;;;;;;;;;26.05;38.57;96457.47;5074581;28;19958;-72
2022/08/21 10:26:09;;;;;;;;;;;;;;;26.29;38.15;96446.22;5073462;28;19954;-72
2022/08/21 10:28:55;;;;;;;;;;;;;;;26.55;38.13;96439.19;5073878;28;19965;-74
2022/08/21 10:31:30;;;;;;;;;;;;;;;26.75;37.27;96443.88;5074389;28;19978;-73
2022/08/21 10:33:59;;;;;;;;;;;;;;;26.90;35.92;96431.81;5067333;28;19971;-74
2022/08/21 10:36:57;;;;;;;;;;;;;;;27.02;38.07;96439.97;5075262;28;19973;-74
2022/08/21 10:39:32;;;;;;;;;;;;;;;26.90;36.55;96429.91;5083393;28;19979;-73
2022/08/21 10:41:58;;;;;;;;;;;;;;;27.01;36.26;96437.63;5074722;28;19957;-74
2022/08/21 10:44:38;;;;;;;;;;;;;;;27.11;35.41;96424.56;5072659;28;20009;-74
2022/08/21 10:47:20;;;;;;;;;;;;;;;27.12;36.42;96425.34;5074004;28;19966;-73
2022/08/21 10:49:45;;;;;;;;;;;;;;;27.14;35.06;96417.75;5071656;28;19959;-73
2022/08/21 10:52:17;;;;;;;;;;;;;;;27.18;34.58;96415.19;5074668;28;19953;-73
2022/08/21 10:54:46;;;;;;;;;;;;;;;27.17;36.54;96419.00;5070775;28;19960;-74
2022/08/21 10:57:18;;;;;;;;;;;;;;;27.26;36.05;96422.47;5074799;28;19959;-74
2022/08/21 10:59:48;;;;;;;;;;;;;;;27.14;35.76;96426.59;5075308;28;19961;-71
2022/08/21 11:02:25;;;;;;;;;;;;;;;27.03;34.56;96411.16;5074498;28;19960;-73
2022/08/21 11:04:58;;;;;;;;;;;;;;;27.01;33.91;96421.47;5073948;28;19960;-73
2022/08/21 11:07:24;;;;;;;;;;;;;;;27.07;34.35;96415.56;5068971;28;19966;-73
2022/08/21 11:09:52;;;;;;;;;;;;;;;27.35;34.65;96411.63;5075504;28;19960;-74
2022/08/21 11:12:17;;;;;;;;;;;;;;;27.65;35.41;96406.97;5078153;28;19962;-74
2022/08/21 11:14:43;;;;;;;;;;;;;;;27.84;32.47;96401.09;5078012;28;19981;-73
2022/08/21 11:17:13;;;;;;;;;;;;;;;27.72;33.81;96399.16;5077327;28;19962;-73
2022/08/21 11:19:49;;;;;;;;;;;;;;;27.53;32.45;96415.78;5070640;28;19980;-76
2022/08/21 11:22:23;;;;;;;;;;;;;;;27.38;33.61;96405.59;5070023;28;19957;-73
2022/08/21 11:24:52;;;;;;;;;;;;;;;27.42;34.18;96417.28;5069425;28;19974;-73
2022/08/21 11:27:21;;;;;;;;;;;;;;;27.73;34.01;96408.81;5077229;28;19971;-73
2022/08/21 11:29:52;;;;;;;;;;;;;;;28.01;31.90;96392.09;5073624;28;19958;-73
2022/08/21 11:32:36;;;;;;;;;;;;;;;28.10;31.45;96395.50;5074294;28;20326;-74
2022/08/21 11:35:08;;;;;;;;;;;;;;;28.26;32.81;96401.81;5070232;28;19960;-72
2022/08/21 11:37:46;;;;;;;;;;;;;;;28.42;33.22;96407.38;5076568;28;20304;-72
2022/08/21 11:40:19;;;;;;;;;;;;;;;28.59;32.05;96397.53;5077900;28;20433;-75
2022/08/21 11:42:45;;;;;;;;;;;;;;;28.70;32.55;96395.97;5077424;28;19950;-73
2022/08/21 11:45:29;;;;;;;;;;;;;;;29.00;32.58;96393.03;5077677;28;19965;-72
2022/08/21 11:48:01;;;;;;;;;;;;;;;29.20;30.84;96384.03;5062493;28;19966;-71
2022/08/21 11:50:28;;;;;;;;;;;;;;;29.10;33.06;96398.00;5076994;28;19974;-73
2022/08/21 11:53:21;;;;;;;;;;;;;;;29.04;30.69;96389.34;5077478;28;19975;-73
2022/08/21 11:55:49;;;;;;;;;;;;;;;28.99;30.28;96378.75;5076515;28;19989;-72
2022/08/21 11:58:25;;;;;;;;;;;;;;;29.01;30.78;96394.63;5078075;28;20448;-72
2022/08/21 12:00:57;;;;;;;;;;;;;;;29.03;30.04;96374.25;5077667;28;19965;-74
2022/08/21 12:03:34;;;;;;;;;;;;;;;28.85;29.30;96383.72;5077561;28;19967;-76
2022/08/21 12:06:01;;;;;;;;;;;;;;;28.83;29.06;96383.25;5077740;28;19970;-75
2022/08/21 12:08:32;;;;;;;;;;;;;;;28.91;31.49;96385.06;5076280;28;19967;-74
2022/08/21 12:11:01;;;;;;;;;;;;;;;28.98;31.20;96385.28;5077287;28;20330;-75
2022/08/21 12:13:28;;;;;;;;;;;;;;;28.89;30.00;96382.69;5073991;28;20038;-74
2022/08/21 12:16:08;;;;;;;;;;;;;;;29.02;30.67;96374.59;5077479;28;19968;-74
2022/08/21 12:18:34;;;;;;;;;;;;;;;29.12;30.48;96374.16;5067267;28;19980;-73
2022/08/21 12:21:03;;;;;;;;;;;;;;;29.40;30.04;96371.53;5076816;28;19965;-74
2022/08/21 12:23:34;;;;;;;;;;;;;;;29.43;30.46;96367.34;5064249;28;19967;-74
2022/08/21 12:26:09;;;;;;;;;;;;;;;29.61;30.49;96357.03;5077189;28;20393;-74
2022/08/21 12:28:35;;;;;;;;;;;;;;;29.70;30.22;96355.78;5077289;28;19951;-73
2022/08/21 12:31:01;;;;;;;;;;;;;;;29.68;30.55;96358.03;5077271;28;19967;-74
2022/08/21 12:33:30;;;;;;;;;;;;;;;29.76;29.46;96342.81;5077028;28;20416;-73
2022/08/21 12:36:20;;;;;;;;;;;;;;;29.81;29.18;96341.78;5077261;28;19959;-75
2022/08/21 12:39:07;;;;;;;;;;;;;;;30.05;29.10;96340.84;5077152;28;19973;-75
2022/08/21 12:41:53;;;;;;;;;;;;;;;30.25;28.09;96336.34;5069553;28;19966;-76
2022/08/21 12:44:23;;;;;;;;;;;;;;;30.19;28.50;96340.44;5076965;28;19967;-73
2022/08/21 12:47:01;;;;;;;;;;;;;;;30.08;28.96;96346.34;5077370;28;19960;-75
2022/08/21 12:49:34;;;;;;;;;;;;;;;30.14;27.67;96339.56;5077088;28;20419;-73
2022/08/21 12:52:13;;;;;;;;;;;;;;;29.90;26.30;96334.28;5077043;28;19967;-74
2022/08/21 12:54:42;;;;;;;;;;;;;;;29.69;28.69;96358.78;5070816;28;19953;-73
2022/08/21 12:57:08;;;;;;;;;;;;;;;29.62;26.60;96350.50;5060962;28;19955;-73